sensor_id;sensor_type;location;lat;lon;timestamp;temperature;humidity
27647;DHT22;42229;51.230;6.240;2023-04-03T00:01:33;3.00;99.90
27647;DHT22;42229;51.230;6.240;2023-04-03T00:03:59;2.90;99.90
27647;DHT22;42229;51.230;6.240;2023-04-03T00:06:25;2.90;99.90
27647;DHT22;42229;51.230;6.240;2023-04-03T00:08:52;2.90;99.90
27647;DHT22;42229;51.230;6.240;2023-04-03T00:11:18;2.80;99.90
27647;DHT22;42229;51.230;6.240;2023-04-03T00:13:45;2.80;99.90
27647;DHT22;42229;51.230;6.240;2023-04-03T00:16:12;2.80;99.90
27647;DHT22;42229;51.230;6.240;2023-04-03T00:18:38;2.70;99.90
27647;DHT22;42229;51.230;6.240;2023-04-03T00:21:06;2.70;99.90
27647;DHT22;42229;51.230;6.240;2023-04-03T00:23:32;2.70;99.90
27647;DHT22;42229;51.230;6.240;2023-04-03T00:25:58;2.60;99.90
27647;DHT22;42229;51.230;6.240;2023-04-03T00:28:25;2.60;99.90
27647;DHT22;42229;51.230;6.240;2023-04-03T00:30:52;2.50;99.90
27647;DHT22;42229;51.230;6.240;2023-04-03T00:33:19;2.50;99.90
27647;DHT22;42229;51.230;6.240;2023-04-03T00:35:47;2.50;99.90
27647;DHT22;42229;51.230;6.240;2023-04-03T00:38:14;2.40;99.90
27647;DHT22;42229;51.230;6.240;2023-04-03T00:40:44;2.40;99.90
27647;DHT22;42229;51.230;6.240;2023-04-03T00:43:19;2.40;99.90
27647;DHT22;42229;51.230;6.240;2023-04-03T00:45:48;2.30;99.90
27647;DHT22;42229;51.230;6.240;2023-04-03T00:48:17;2.30;99.90
27647;DHT22;42229;51.230;6.240;2023-04-03T00:50:46;2.30;99.90
27647;DHT22;42229;51.230;6.240;2023-04-03T00:53:25;2.20;99.90
27647;DHT22;42229;51.230;6.240;2023-04-03T00:55:53;2.20;99.90
27647;DHT22;42229;51.230;6.240;2023-04-03T00:58:23;2.20;99.90
27647;DHT22;42229;51.230;6.240;2023-04-03T01:00:58;2.10;99.90
27647;DHT22;42229;51.230;6.240;2023-04-03T01:03:25;2.10;99.90
27647;DHT22;42229;51.230;6.240;2023-04-03T01:05:53;2.10;99.90
27647;DHT22;42229;51.230;6.240;2023-04-03T01:08:19;2.10;99.90
27647;DHT22;42229;51.230;6.240;2023-04-03T01:10:45;2.10;99.90
27647;DHT22;42229;51.230;6.240;2023-04-03T01:13:24;2.10;99.90
27647;DHT22;42229;51.230;6.240;2023-04-03T01:15:52;2.10;99.90
27647;DHT22;42229;51.230;6.240;2023-04-03T01:18:19;2.00;99.90
27647;DHT22;42229;51.230;6.240;2023-04-03T01:21:05;2.00;99.90
27647;DHT22;42229;51.230;6.240;2023-04-03T01:23:42;2.00;99.90
27647;DHT22;42229;51.230;6.240;2023-04-03T01:26:10;2.00;99.90
27647;DHT22;42229;51.230;6.240;2023-04-03T01:28:38;1.90;99.90
27647;DHT22;42229;51.230;6.240;2023-04-03T01:33:44;1.90;99.90
27647;DHT22;42229;51.230;6.240;2023-04-03T01:36:14;1.90;99.90
27647;DHT22;42229;51.230;6.240;2023-04-03T01:38:44;1.90;99.90
27647;DHT22;42229;51.230;6.240;2023-04-03T01:41:10;1.90;99.90
27647;DHT22;42229;51.230;6.240;2023-04-03T01:43:37;1.80;99.90
27647;DHT22;42229;51.230;6.240;2023-04-03T01:46:03;1.80;99.90
27647;DHT22;42229;51.230;6.240;2023-04-03T01:48:30;1.80;99.90
27647;DHT22;42229;51.230;6.240;2023-04-03T01:50:56;1.80;99.90
27647;DHT22;42229;51.230;6.240;2023-04-03T01:53:22;1.80;99.90
27647;DHT22;42229;51.230;6.240;2023-04-03T01:55:49;1.70;99.90
27647;DHT22;42229;51.230;6.240;2023-04-03T01:58:15;1.70;99.90
27647;DHT22;42229;51.230;6.240;2023-04-03T02:00:41;1.70;99.90
27647;DHT22;42229;51.230;6.240;2023-04-03T02:03:08;1.70;99.90
27647;DHT22;42229;51.230;6.240;2023-04-03T02:05:34;1.60;99.90
27647;DHT22;42229;51.230;6.240;2023-04-03T02:08:01;1.60;99.90
27647;DHT22;42229;51.230;6.240;2023-04-03T02:10:28;1.60;99.90
27647;DHT22;42229;51.230;6.240;2023-04-03T02:12:54;1.60;99.90
27647;DHT22;42229;51.230;6.240;2023-04-03T02:15:21;1.60;99.90
27647;DHT22;42229;51.230;6.240;2023-04-03T02:17:47;1.60;99.90
27647;DHT22;42229;51.230;6.240;2023-04-03T02:20:14;1.60;99.90
27647;DHT22;42229;51.230;6.240;2023-04-03T02:22:40;1.60;99.90
27647;DHT22;42229;51.230;6.240;2023-04-03T02:25:06;1.60;99.90
27647;DHT22;42229;51.230;6.240;2023-04-03T02:27:33;1.60;99.90
27647;DHT22;42229;51.230;6.240;2023-04-03T02:29:59;1.60;99.90
27647;DHT22;42229;51.230;6.240;2023-04-03T02:32:25;1.60;99.90
27647;DHT22;42229;51.230;6.240;2023-04-03T02:34:51;1.70;99.90
27647;DHT22;42229;51.230;6.240;2023-04-03T02:37:18;1.70;99.90
27647;DHT22;42229;51.230;6.240;2023-04-03T02:39:46;1.70;99.90
27647;DHT22;42229;51.230;6.240;2023-04-03T02:42:12;1.80;99.90
27647;DHT22;42229;51.230;6.240;2023-04-03T02:44:39;1.80;99.90
27647;DHT22;42229;51.230;6.240;2023-04-03T02:47:05;1.90;99.90
27647;DHT22;42229;51.230;6.240;2023-04-03T02:49:32;1.90;99.90
27647;DHT22;42229;51.230;6.240;2023-04-03T02:51:59;2.00;99.90
27647;DHT22;42229;51.230;6.240;2023-04-03T02:54:25;2.00;99.90
27647;DHT22;42229;51.230;6.240;2023-04-03T02:56:55;2.10;99.90
27647;DHT22;42229;51.230;6.240;2023-04-03T02:59:21;2.10;99.90
27647;DHT22;42229;51.230;6.240;2023-04-03T03:01:48;2.10;99.90
27647;DHT22;42229;51.230;6.240;2023-04-03T03:04:14;2.20;99.90
27647;DHT22;42229;51.230;6.240;2023-04-03T03:06:41;2.20;99.90
27647;DHT22;42229;51.230;6.240;2023-04-03T03:09:07;2.30;99.90
27647;DHT22;42229;51.230;6.240;2023-04-03T03:11:33;2.30;99.90
27647;DHT22;42229;51.230;6.240;2023-04-03T03:14:00;2.30;99.90
27647;DHT22;42229;51.230;6.240;2023-04-03T03:16:27;2.40;99.90
27647;DHT22;42229;51.230;6.240;2023-04-03T03:18:53;2.40;99.90
27647;DHT22;42229;51.230;6.240;2023-04-03T03:21:19;2.40;99.90
27647;DHT22;42229;51.230;6.240;2023-04-03T03:23:45;2.40;99.90
27647;DHT22;42229;51.230;6.240;2023-04-03T03:26:11;2.50;99.90
27647;DHT22;42229;51.230;6.240;2023-04-03T03:28:38;2.50;99.90
27647;DHT22;42229;51.230;6.240;2023-04-03T03:31:06;2.50;99.90
27647;DHT22;42229;51.230;6.240;2023-04-03T03:33:33;2.50;99.90
27647;DHT22;42229;51.230;6.240;2023-04-03T03:36:00;2.60;99.90
27647;DHT22;42229;51.230;6.240;2023-04-03T03:38:26;2.60;99.90
27647;DHT22;42229;51.230;6.240;2023-04-03T03:40:53;2.60;99.90
27647;DHT22;42229;51.230;6.240;2023-04-03T03:43:21;2.60;99.90
27647;DHT22;42229;51.230;6.240;2023-04-03T03:45:52;2.60;99.90
27647;DHT22;42229;51.230;6.240;2023-04-03T03:48:19;2.60;99.90
27647;DHT22;42229;51.230;6.240;2023-04-03T03:50:46;2.60;99.90
27647;DHT22;42229;51.230;6.240;2023-04-03T03:53:13;2.60;99.90
27647;DHT22;42229;51.230;6.240;2023-04-03T03:55:39;2.70;99.90
27647;DHT22;42229;51.230;6.240;2023-04-03T03:58:06;2.60;99.90
27647;DHT22;42229;51.230;6.240;2023-04-03T04:00:34;2.60;99.90
27647;DHT22;42229;51.230;6.240;2023-04-03T04:03:00;2.60;99.90
27647;DHT22;42229;51.230;6.240;2023-04-03T04:05:29;2.60;99.90
27647;DHT22;42229;51.230;6.240;2023-04-03T04:07:56;2.70;99.90
27647;DHT22;42229;51.230;6.240;2023-04-03T04:10:23;2.60;99.90
27647;DHT22;42229;51.230;6.240;2023-04-03T04:12:49;2.60;99.90
27647;DHT22;42229;51.230;6.240;2023-04-03T04:15:17;2.60;99.90
27647;DHT22;42229;51.230;6.240;2023-04-03T04:17:44;2.60;99.90
27647;DHT22;42229;51.230;6.240;2023-04-03T04:20:11;2.60;99.90
27647;DHT22;42229;51.230;6.240;2023-04-03T04:22:39;2.60;99.90
27647;DHT22;42229;51.230;6.240;2023-04-03T04:25:05;2.60;99.90
27647;DHT22;42229;51.230;6.240;2023-04-03T04:27:33;2.60;99.90
27647;DHT22;42229;51.230;6.240;2023-04-03T04:29:59;2.60;99.90
27647;DHT22;42229;51.230;6.240;2023-04-03T04:32:27;2.60;99.90
27647;DHT22;42229;51.230;6.240;2023-04-03T04:34:53;2.50;99.90
27647;DHT22;42229;51.230;6.240;2023-04-03T04:37:19;2.50;99.90
27647;DHT22;42229;51.230;6.240;2023-04-03T04:39:47;2.50;99.90
27647;DHT22;42229;51.230;6.240;2023-04-03T04:42:13;2.40;99.90
27647;DHT22;42229;51.230;6.240;2023-04-03T04:44:40;2.40;99.90
27647;DHT22;42229;51.230;6.240;2023-04-03T04:47:07;2.40;99.90
27647;DHT22;42229;51.230;6.240;2023-04-03T04:49:33;2.40;99.90
27647;DHT22;42229;51.230;6.240;2023-04-03T04:52:00;2.30;99.90
27647;DHT22;42229;51.230;6.240;2023-04-03T04:54:30;2.30;99.90
27647;DHT22;42229;51.230;6.240;2023-04-03T04:56:57;2.30;99.90
27647;DHT22;42229;51.230;6.240;2023-04-03T04:59:24;2.30;99.90
27647;DHT22;42229;51.230;6.240;2023-04-03T05:01:52;2.30;99.90
27647;DHT22;42229;51.230;6.240;2023-04-03T05:04:19;2.20;99.90
27647;DHT22;42229;51.230;6.240;2023-04-03T05:06:50;2.20;99.90
27647;DHT22;42229;51.230;6.240;2023-04-03T05:09:21;2.20;99.90
27647;DHT22;42229;51.230;6.240;2023-04-03T05:11:49;2.20;99.90
27647;DHT22;42229;51.230;6.240;2023-04-03T05:14:16;2.20;99.90
27647;DHT22;42229;51.230;6.240;2023-04-03T05:16:43;2.20;99.90
27647;DHT22;42229;51.230;6.240;2023-04-03T05:19:10;2.20;99.90
27647;DHT22;42229;51.230;6.240;2023-04-03T05:21:37;2.20;99.90
27647;DHT22;42229;51.230;6.240;2023-04-03T05:24:08;2.20;99.90
27647;DHT22;42229;51.230;6.240;2023-04-03T05:26:37;2.20;99.90
27647;DHT22;42229;51.230;6.240;2023-04-03T05:29:05;2.20;99.90
27647;DHT22;42229;51.230;6.240;2023-04-03T05:31:32;2.20;99.90
27647;DHT22;42229;51.230;6.240;2023-04-03T05:33:58;2.20;99.90
27647;DHT22;42229;51.230;6.240;2023-04-03T05:36:26;2.30;99.90
27647;DHT22;42229;51.230;6.240;2023-04-03T05:38:57;2.30;99.90
27647;DHT22;42229;51.230;6.240;2023-04-03T05:41:24;2.30;99.90
27647;DHT22;42229;51.230;6.240;2023-04-03T05:43:51;2.30;99.90
27647;DHT22;42229;51.230;6.240;2023-04-03T05:46:19;2.30;99.90
27647;DHT22;42229;51.230;6.240;2023-04-03T05:48:51;2.30;99.90
27647;DHT22;42229;51.230;6.240;2023-04-03T05:51:24;2.30;99.90
27647;DHT22;42229;51.230;6.240;2023-04-03T05:54:00;2.30;99.90
27647;DHT22;42229;51.230;6.240;2023-04-03T05:56:31;2.30;99.90
27647;DHT22;42229;51.230;6.240;2023-04-03T05:58:57;2.30;99.90
27647;DHT22;42229;51.230;6.240;2023-04-03T06:01:23;2.40;99.90
27647;DHT22;42229;51.230;6.240;2023-04-03T06:03:50;2.40;99.90
27647;DHT22;42229;51.230;6.240;2023-04-03T06:06:16;2.40;99.90
27647;DHT22;42229;51.230;6.240;2023-04-03T06:08:42;2.40;99.90
27647;DHT22;42229;51.230;6.240;2023-04-03T06:11:09;2.50;99.90
27647;DHT22;42229;51.230;6.240;2023-04-03T06:13:36;2.50;99.90
27647;DHT22;42229;51.230;6.240;2023-04-03T06:16:03;2.60;99.90
27647;DHT22;42229;51.230;6.240;2023-04-03T06:18:30;2.60;99.90
27647;DHT22;42229;51.230;6.240;2023-04-03T06:20:56;2.60;99.90
27647;DHT22;42229;51.230;6.240;2023-04-03T06:23:23;2.70;99.90
27647;DHT22;42229;51.230;6.240;2023-04-03T06:25:50;2.70;99.90
27647;DHT22;42229;51.230;6.240;2023-04-03T06:28:16;2.70;99.90
27647;DHT22;42229;51.230;6.240;2023-04-03T06:30:42;2.80;99.90
27647;DHT22;42229;51.230;6.240;2023-04-03T06:33:09;2.90;99.90
27647;DHT22;42229;51.230;6.240;2023-04-03T06:35:35;2.90;99.90
27647;DHT22;42229;51.230;6.240;2023-04-03T06:38:02;3.00;99.90
27647;DHT22;42229;51.230;6.240;2023-04-03T06:40:33;3.10;99.90
27647;DHT22;42229;51.230;6.240;2023-04-03T06:42:59;3.10;99.90
27647;DHT22;42229;51.230;6.240;2023-04-03T06:45:26;3.20;99.90
27647;DHT22;42229;51.230;6.240;2023-04-03T06:47:52;3.20;99.90
27647;DHT22;42229;51.230;6.240;2023-04-03T06:50:18;3.30;99.90
27647;DHT22;42229;51.230;6.240;2023-04-03T06:52:45;3.40;99.90
27647;DHT22;42229;51.230;6.240;2023-04-03T06:55:11;3.50;99.90
27647;DHT22;42229;51.230;6.240;2023-04-03T06:57:38;3.50;99.90
27647;DHT22;42229;51.230;6.240;2023-04-03T07:00:04;3.60;99.90
27647;DHT22;42229;51.230;6.240;2023-04-03T07:02:32;3.70;99.90
27647;DHT22;42229;51.230;6.240;2023-04-03T07:04:59;3.80;99.90
27647;DHT22;42229;51.230;6.240;2023-04-03T07:07:25;3.90;99.90
27647;DHT22;42229;51.230;6.240;2023-04-03T07:09:51;4.00;99.90
27647;DHT22;42229;51.230;6.240;2023-04-03T07:12:18;4.00;99.90
27647;DHT22;42229;51.230;6.240;2023-04-03T07:14:44;4.20;99.90
27647;DHT22;42229;51.230;6.240;2023-04-03T07:17:10;4.20;99.90
27647;DHT22;42229;51.230;6.240;2023-04-03T07:19:36;4.30;99.90
27647;DHT22;42229;51.230;6.240;2023-04-03T07:22:03;4.40;99.90
27647;DHT22;42229;51.230;6.240;2023-04-03T07:24:29;4.50;99.90
27647;DHT22;42229;51.230;6.240;2023-04-03T07:26:55;4.60;99.90
27647;DHT22;42229;51.230;6.240;2023-04-03T07:29:22;4.70;99.90
27647;DHT22;42229;51.230;6.240;2023-04-03T07:31:48;4.80;99.90
27647;DHT22;42229;51.230;6.240;2023-04-03T07:34:15;4.90;99.90
27647;DHT22;42229;51.230;6.240;2023-04-03T07:36:41;5.00;99.90
27647;DHT22;42229;51.230;6.240;2023-04-03T07:39:07;5.10;99.90
27647;DHT22;42229;51.230;6.240;2023-04-03T07:41:33;5.20;99.90
27647;DHT22;42229;51.230;6.240;2023-04-03T07:44:00;5.30;99.90
27647;DHT22;42229;51.230;6.240;2023-04-03T07:46:26;5.40;99.90
27647;DHT22;42229;51.230;6.240;2023-04-03T07:48:52;5.50;99.90
27647;DHT22;42229;51.230;6.240;2023-04-03T07:51:19;5.70;99.90
27647;DHT22;42229;51.230;6.240;2023-04-03T07:53:45;5.70;99.90
27647;DHT22;42229;51.230;6.240;2023-04-03T07:56:11;5.80;99.90
27647;DHT22;42229;51.230;6.240;2023-04-03T07:58:38;5.90;99.90
27647;DHT22;42229;51.230;6.240;2023-04-03T08:01:04;6.00;99.90
27647;DHT22;42229;51.230;6.240;2023-04-03T08:03:30;6.10;99.90
27647;DHT22;42229;51.230;6.240;2023-04-03T08:06:01;6.20;99.90
27647;DHT22;42229;51.230;6.240;2023-04-03T08:08:29;6.30;99.90
27647;DHT22;42229;51.230;6.240;2023-04-03T08:10:57;6.30;99.90
27647;DHT22;42229;51.230;6.240;2023-04-03T08:13:24;6.40;99.90
27647;DHT22;42229;51.230;6.240;2023-04-03T08:15:51;6.50;99.90
27647;DHT22;42229;51.230;6.240;2023-04-03T08:18:17;6.60;99.90
27647;DHT22;42229;51.230;6.240;2023-04-03T08:20:49;6.70;99.90
27647;DHT22;42229;51.230;6.240;2023-04-03T08:23:15;6.80;99.90
27647;DHT22;42229;51.230;6.240;2023-04-03T08:25:42;6.90;99.90
27647;DHT22;42229;51.230;6.240;2023-04-03T08:28:09;6.90;99.90
27647;DHT22;42229;51.230;6.240;2023-04-03T08:30:40;7.10;99.90
27647;DHT22;42229;51.230;6.240;2023-04-03T08:33:08;7.10;99.90
27647;DHT22;42229;51.230;6.240;2023-04-03T08:35:41;7.20;99.90
27647;DHT22;42229;51.230;6.240;2023-04-03T08:38:08;7.30;99.90
27647;DHT22;42229;51.230;6.240;2023-04-03T08:40:35;7.40;99.90
27647;DHT22;42229;51.230;6.240;2023-04-03T08:45:37;7.50;99.90
27647;DHT22;42229;51.230;6.240;2023-04-03T08:48:15;7.60;99.90
27647;DHT22;42229;51.230;6.240;2023-04-03T08:50:46;7.70;99.40
27647;DHT22;42229;51.230;6.240;2023-04-03T08:53:19;7.80;99.90
27647;DHT22;42229;51.230;6.240;2023-04-03T08:55:50;7.90;99.90
27647;DHT22;42229;51.230;6.240;2023-04-03T09:01:06;8.10;99.90
27647;DHT22;42229;51.230;6.240;2023-04-03T09:03:41;8.20;97.30
27647;DHT22;42229;51.230;6.240;2023-04-03T09:06:13;8.20;98.00
27647;DHT22;42229;51.230;6.240;2023-04-03T09:14:38;8.50;97.70
27647;DHT22;42229;51.230;6.240;2023-04-03T09:17:53;8.60;94.50
27647;DHT22;42229;51.230;6.240;2023-04-03T09:20:04;8.60;92.70
27647;DHT22;42229;51.230;6.240;2023-04-03T09:22:32;8.70;92.60
27647;DHT22;42229;51.230;6.240;2023-04-03T09:25:01;8.80;92.30
27647;DHT22;42229;51.230;6.240;2023-04-03T09:27:37;8.90;92.70
27647;DHT22;42229;51.230;6.240;2023-04-03T09:30:04;8.90;93.90
27647;DHT22;42229;51.230;6.240;2023-04-03T09:32:32;9.10;93.80
27647;DHT22;42229;51.230;6.240;2023-04-03T09:35:01;9.20;99.90
27647;DHT22;42229;51.230;6.240;2023-04-03T09:37:40;9.20;99.90
27647;DHT22;42229;51.230;6.240;2023-04-03T09:42:54;9.30;91.60
27647;DHT22;42229;51.230;6.240;2023-04-03T09:48:39;9.50;92.80
27647;DHT22;42229;51.230;6.240;2023-04-03T09:56:03;9.60;92.00
27647;DHT22;42229;51.230;6.240;2023-04-03T09:58:40;9.70;89.20
27647;DHT22;42229;51.230;6.240;2023-04-03T10:01:20;9.70;83.30
27647;DHT22;42229;51.230;6.240;2023-04-03T10:04:02;9.70;77.80
27647;DHT22;42229;51.230;6.240;2023-04-03T10:06:29;9.80;74.10
27647;DHT22;42229;51.230;6.240;2023-04-03T10:09:05;9.80;72.40
27647;DHT22;42229;51.230;6.240;2023-04-03T10:11:36;9.80;82.50
27647;DHT22;42229;51.230;6.240;2023-04-03T10:14:03;9.90;71.80
27647;DHT22;42229;51.230;6.240;2023-04-03T10:16:44;10.00;85.50
27647;DHT22;42229;51.230;6.240;2023-04-03T10:19:30;10.10;82.30
27647;DHT22;42229;51.230;6.240;2023-04-03T10:27:44;10.30;74.50
27647;DHT22;42229;51.230;6.240;2023-04-03T10:30:19;10.30;73.20
27647;DHT22;42229;51.230;6.240;2023-04-03T10:33:18;10.50;91.10
27647;DHT22;42229;51.230;6.240;2023-04-03T10:44:08;10.90;79.20
27647;DHT22;42229;51.230;6.240;2023-04-03T10:46:42;10.90;70.30
27647;DHT22;42229;51.230;6.240;2023-04-03T10:57:18;11.20;65.70
27647;DHT22;42229;51.230;6.240;2023-04-03T10:59:46;11.30;70.30
27647;DHT22;42229;51.230;6.240;2023-04-03T11:02:34;11.30;69.70
27647;DHT22;42229;51.230;6.240;2023-04-03T11:05:04;11.30;69.20
27647;DHT22;42229;51.230;6.240;2023-04-03T11:07:40;11.40;71.50
27647;DHT22;42229;51.230;6.240;2023-04-03T11:10:57;11.50;70.00
27647;DHT22;42229;51.230;6.240;2023-04-03T11:15:39;11.70;73.30
27647;DHT22;42229;51.230;6.240;2023-04-03T11:18:09;11.80;69.30
27647;DHT22;42229;51.230;6.240;2023-04-03T11:20:38;11.90;71.30
27647;DHT22;42229;51.230;6.240;2023-04-03T11:23:13;12.00;71.70
27647;DHT22;42229;51.230;6.240;2023-04-03T11:25:46;12.20;95.90
27647;DHT22;42229;51.230;6.240;2023-04-03T11:28:16;12.30;90.10
27647;DHT22;42229;51.230;6.240;2023-04-03T11:30:51;12.50;73.10
27647;DHT22;42229;51.230;6.240;2023-04-03T11:36:27;12.70;76.70
27647;DHT22;42229;51.230;6.240;2023-04-03T11:41:41;13.10;79.60
27647;DHT22;42229;51.230;6.240;2023-04-03T11:47:08;13.50;77.10
27647;DHT22;42229;51.230;6.240;2023-04-03T11:49:51;13.80;70.70
27647;DHT22;42229;51.230;6.240;2023-04-03T12:05:48;15.60;60.80
27647;DHT22;42229;51.230;6.240;2023-04-03T12:08:28;15.90;63.70
27647;DHT22;42229;51.230;6.240;2023-04-03T12:11:26;16.10;73.30
27647;DHT22;42229;51.230;6.240;2023-04-03T12:16:27;16.80;61.60
27647;DHT22;42229;51.230;6.240;2023-04-03T12:31:46;18.30;59.30
27647;DHT22;42229;51.230;6.240;2023-04-03T12:34:24;18.50;50.30
27647;DHT22;42229;51.230;6.240;2023-04-03T12:37:15;18.80;53.90
27647;DHT22;42229;51.230;6.240;2023-04-03T12:39:52;19.10;51.90
27647;DHT22;42229;51.230;6.240;2023-04-03T12:45:20;19.50;49.80
27647;DHT22;42229;51.230;6.240;2023-04-03T12:47:49;19.60;48.20
27647;DHT22;42229;51.230;6.240;2023-04-03T12:52:59;19.80;48.30
27647;DHT22;42229;51.230;6.240;2023-04-03T12:55:28;19.90;49.40
27647;DHT22;42229;51.230;6.240;2023-04-03T12:57:54;19.90;50.00
27647;DHT22;42229;51.230;6.240;2023-04-03T13:00:31;20.10;51.50
27647;DHT22;42229;51.230;6.240;2023-04-03T13:02:59;20.00;46.20
27647;DHT22;42229;51.230;6.240;2023-04-03T13:05:29;20.10;45.50
27647;DHT22;42229;51.230;6.240;2023-04-03T13:07:58;20.20;48.40
27647;DHT22;42229;51.230;6.240;2023-04-03T13:10:29;20.20;50.10
27647;DHT22;42229;51.230;6.240;2023-04-03T13:12:56;20.30;45.70
27647;DHT22;42229;51.230;6.240;2023-04-03T13:17:53;20.30;47.90
27647;DHT22;42229;51.230;6.240;2023-04-03T13:20:22;20.40;46.50
27647;DHT22;42229;51.230;6.240;2023-04-03T13:25:26;20.60;46.90
27647;DHT22;42229;51.230;6.240;2023-04-03T13:27:54;20.70;44.70
27647;DHT22;42229;51.230;6.240;2023-04-03T13:30:26;20.70;42.80
27647;DHT22;42229;51.230;6.240;2023-04-03T13:32:53;20.60;42.60
27647;DHT22;42229;51.230;6.240;2023-04-03T13:35:25;20.70;45.40
27647;DHT22;42229;51.230;6.240;2023-04-03T13:37:53;20.70;45.50
27647;DHT22;42229;51.230;6.240;2023-04-03T13:40:21;20.80;50.10
27647;DHT22;42229;51.230;6.240;2023-04-03T13:42:57;20.80;43.40
27647;DHT22;42229;51.230;6.240;2023-04-03T13:45:26;20.80;42.10
27647;DHT22;42229;51.230;6.240;2023-04-03T13:48:07;20.60;42.60
27647;DHT22;42229;51.230;6.240;2023-04-03T13:50:51;20.50;45.20
27647;DHT22;42229;51.230;6.240;2023-04-03T13:53:23;20.50;47.40
27647;DHT22;42229;51.230;6.240;2023-04-03T13:58:29;20.30;39.40
27647;DHT22;42229;51.230;6.240;2023-04-03T14:01:00;20.20;40.50
27647;DHT22;42229;51.230;6.240;2023-04-03T14:03:52;20.10;40.10
27647;DHT22;42229;51.230;6.240;2023-04-03T14:06:19;20.00;41.10
27647;DHT22;42229;51.230;6.240;2023-04-03T14:08:46;20.00;43.50
27647;DHT22;42229;51.230;6.240;2023-04-03T14:11:18;19.90;41.20
27647;DHT22;42229;51.230;6.240;2023-04-03T14:13:46;20.00;45.50
27647;DHT22;42229;51.230;6.240;2023-04-03T14:16:15;20.00;41.10
27647;DHT22;42229;51.230;6.240;2023-04-03T14:18:46;19.90;39.80
27647;DHT22;42229;51.230;6.240;2023-04-03T14:21:15;19.90;41.30
27647;DHT22;42229;51.230;6.240;2023-04-03T14:23:42;19.90;38.60
27647;DHT22;42229;51.230;6.240;2023-04-03T14:26:20;19.70;39.10
27647;DHT22;42229;51.230;6.240;2023-04-03T14:28:48;19.70;42.80
27647;DHT22;42229;51.230;6.240;2023-04-03T14:31:17;19.80;46.20
27647;DHT22;42229;51.230;6.240;2023-04-03T14:33:44;19.90;42.00
27647;DHT22;42229;51.230;6.240;2023-04-03T14:36:14;20.10;45.60
27647;DHT22;42229;51.230;6.240;2023-04-03T14:38:43;20.30;43.70
27647;DHT22;42229;51.230;6.240;2023-04-03T14:41:13;20.40;45.00
27647;DHT22;42229;51.230;6.240;2023-04-03T14:43:41;20.50;41.00
27647;DHT22;42229;51.230;6.240;2023-04-03T14:46:12;20.60;39.40
27647;DHT22;42229;51.230;6.240;2023-04-03T14:48:40;20.50;41.70
27647;DHT22;42229;51.230;6.240;2023-04-03T14:51:06;20.40;39.70
27647;DHT22;42229;51.230;6.240;2023-04-03T14:53:34;20.30;41.20
27647;DHT22;42229;51.230;6.240;2023-04-03T14:56:00;20.10;42.70
27647;DHT22;42229;51.230;6.240;2023-04-03T14:58:27;19.80;39.00
27647;DHT22;42229;51.230;6.240;2023-04-03T15:00:53;19.50;39.60
27647;DHT22;42229;51.230;6.240;2023-04-03T15:03:21;19.30;41.00
27647;DHT22;42229;51.230;6.240;2023-04-03T15:05:48;19.10;40.30
27647;DHT22;42229;51.230;6.240;2023-04-03T15:08:22;18.80;42.20
27647;DHT22;42229;51.230;6.240;2023-04-03T15:10:50;18.70;43.50
27647;DHT22;42229;51.230;6.240;2023-04-03T15:13:18;18.50;40.80
27647;DHT22;42229;51.230;6.240;2023-04-03T15:15:45;18.40;43.50
27647;DHT22;42229;51.230;6.240;2023-04-03T15:18:22;18.30;44.30
27647;DHT22;42229;51.230;6.240;2023-04-03T15:20:54;18.30;42.60
27647;DHT22;42229;51.230;6.240;2023-04-03T15:23:21;18.40;43.90
27647;DHT22;42229;51.230;6.240;2023-04-03T15:25:51;18.50;40.50
27647;DHT22;42229;51.230;6.240;2023-04-03T15:28:23;18.60;47.20
27647;DHT22;42229;51.230;6.240;2023-04-03T15:30:53;18.80;41.10
27647;DHT22;42229;51.230;6.240;2023-04-03T15:33:20;18.80;41.70
27647;DHT22;42229;51.230;6.240;2023-04-03T15:35:46;18.90;45.10
27647;DHT22;42229;51.230;6.240;2023-04-03T15:38:12;18.80;39.90
27647;DHT22;42229;51.230;6.240;2023-04-03T15:40:39;18.80;42.10
27647;DHT22;42229;51.230;6.240;2023-04-03T15:43:06;18.80;41.70
27647;DHT22;42229;51.230;6.240;2023-04-03T15:45:33;18.80;42.60
27647;DHT22;42229;51.230;6.240;2023-04-03T15:48:01;18.80;42.20
27647;DHT22;42229;51.230;6.240;2023-04-03T15:50:28;18.90;44.70
27647;DHT22;42229;51.230;6.240;2023-04-03T15:52:54;18.90;42.70
27647;DHT22;42229;51.230;6.240;2023-04-03T15:55:21;19.00;44.40
27647;DHT22;42229;51.230;6.240;2023-04-03T15:57:48;19.10;40.80
27647;DHT22;42229;51.230;6.240;2023-04-03T16:00:14;19.10;41.00
27647;DHT22;42229;51.230;6.240;2023-04-03T16:02:41;19.10;42.50
27647;DHT22;42229;51.230;6.240;2023-04-03T16:05:09;19.00;39.70
27647;DHT22;42229;51.230;6.240;2023-04-03T16:07:36;19.00;40.90
27647;DHT22;42229;51.230;6.240;2023-04-03T16:10:04;18.90;39.60
27647;DHT22;42229;51.230;6.240;2023-04-03T16:12:32;18.80;41.90
27647;DHT22;42229;51.230;6.240;2023-04-03T16:14:58;18.80;42.20
27647;DHT22;42229;51.230;6.240;2023-04-03T16:17:25;18.80;41.00
27647;DHT22;42229;51.230;6.240;2023-04-03T16:19:52;18.70;42.50
27647;DHT22;42229;51.230;6.240;2023-04-03T16:22:18;18.60;41.00
27647;DHT22;42229;51.230;6.240;2023-04-03T16:24:44;18.50;40.90
27647;DHT22;42229;51.230;6.240;2023-04-03T16:27:11;18.30;40.50
27647;DHT22;42229;51.230;6.240;2023-04-03T16:29:37;18.20;42.40
27647;DHT22;42229;51.230;6.240;2023-04-03T16:32:03;18.10;40.80
27647;DHT22;42229;51.230;6.240;2023-04-03T16:34:29;18.10;44.40
27647;DHT22;42229;51.230;6.240;2023-04-03T16:36:58;18.10;42.20
27647;DHT22;42229;51.230;6.240;2023-04-03T16:39:24;18.10;42.10
27647;DHT22;42229;51.230;6.240;2023-04-03T16:41:50;18.10;44.20
27647;DHT22;42229;51.230;6.240;2023-04-03T16:44:16;18.10;41.60
27647;DHT22;42229;51.230;6.240;2023-04-03T16:46:42;18.00;41.20
27647;DHT22;42229;51.230;6.240;2023-04-03T16:49:09;18.10;43.40
27647;DHT22;42229;51.230;6.240;2023-04-03T16:51:35;18.10;43.20
27647;DHT22;42229;51.230;6.240;2023-04-03T16:54:01;18.00;42.60
27647;DHT22;42229;51.230;6.240;2023-04-03T16:56:27;17.90;42.00
27647;DHT22;42229;51.230;6.240;2023-04-03T16:58:54;17.80;43.10
27647;DHT22;42229;51.230;6.240;2023-04-03T17:01:21;17.80;44.20
27647;DHT22;42229;51.230;6.240;2023-04-03T17:03:47;17.70;42.00
27647;DHT22;42229;51.230;6.240;2023-04-03T17:06:20;17.70;43.20
27647;DHT22;42229;51.230;6.240;2023-04-03T17:08:49;17.60;41.60
27647;DHT22;42229;51.230;6.240;2023-04-03T17:11:26;17.50;42.80
27647;DHT22;42229;51.230;6.240;2023-04-03T17:13:53;17.40;43.50
27647;DHT22;42229;51.230;6.240;2023-04-03T17:16:20;17.30;43.60
27647;DHT22;42229;51.230;6.240;2023-04-03T17:18:46;17.20;42.50
27647;DHT22;42229;51.230;6.240;2023-04-03T17:21:13;17.10;42.80
27647;DHT22;42229;51.230;6.240;2023-04-03T17:23:40;17.00;44.00
27647;DHT22;42229;51.230;6.240;2023-04-03T17:26:07;16.90;43.40
27647;DHT22;42229;51.230;6.240;2023-04-03T17:28:33;16.70;43.60
27647;DHT22;42229;51.230;6.240;2023-04-03T17:31:00;16.60;46.40